sensor_id;sensor_type;location;lat;lon;timestamp;P1;durP1;ratioP1;P2;durP2;ratioP2
7324;SDS011;3703;48.016;7.802;2023-04-24T00:02:04;1.40;;;1.30;;
7324;SDS011;3703;48.016;7.802;2023-04-24T00:04:52;1.50;;;1.40;;
7324;SDS011;3703;48.016;7.802;2023-04-24T00:07:39;1.30;;;1.00;;
7324;SDS011;3703;48.016;7.802;2023-04-24T00:10:29;1.30;;;1.20;;
7324;SDS011;3703;48.016;7.802;2023-04-24T00:13:16;1.33;;;1.13;;
7324;SDS011;3703;48.016;7.802;2023-04-24T00:16:04;1.20;;;1.10;;
7324;SDS011;3703;48.016;7.802;2023-04-24T00:18:52;1.97;;;1.50;;
7324;SDS011;3703;48.016;7.802;2023-04-24T00:21:41;2.10;;;1.47;;
7324;SDS011;3703;48.016;7.802;2023-04-24T00:24:29;1.03;;;1.03;;
7324;SDS011;3703;48.016;7.802;2023-04-24T00:27:18;1.97;;;1.40;;
7324;SDS011;3703;48.016;7.802;2023-04-24T00:30:06;1.03;;;1.00;;
7324;SDS011;3703;48.016;7.802;2023-04-24T00:32:54;1.67;;;1.27;;
7324;SDS011;3703;48.016;7.802;2023-04-24T00:35:42;2.47;;;1.00;;
7324;SDS011;3703;48.016;7.802;2023-04-24T00:38:30;1.03;;;1.03;;
7324;SDS011;3703;48.016;7.802;2023-04-24T00:41:17;0.97;;;0.80;;
7324;SDS011;3703;48.016;7.802;2023-04-24T00:44:07;1.23;;;1.00;;
7324;SDS011;3703;48.016;7.802;2023-04-24T00:46:55;4.37;;;1.07;;
7324;SDS011;3703;48.016;7.802;2023-04-24T00:49:43;1.90;;;1.20;;
7324;SDS011;3703;48.016;7.802;2023-04-24T00:52:31;2.10;;;1.10;;
7324;SDS011;3703;48.016;7.802;2023-04-24T00:55:18;1.77;;;1.23;;
7324;SDS011;3703;48.016;7.802;2023-04-24T00:58:06;2.60;;;1.20;;
7324;SDS011;3703;48.016;7.802;2023-04-24T01:00:55;2.13;;;1.00;;
7324;SDS011;3703;48.016;7.802;2023-04-24T01:03:43;2.03;;;1.10;;
7324;SDS011;3703;48.016;7.802;2023-04-24T01:06:31;1.13;;;1.00;;
7324;SDS011;3703;48.016;7.802;2023-04-24T01:09:19;1.53;;;1.07;;
7324;SDS011;3703;48.016;7.802;2023-04-24T01:12:09;2.13;;;1.50;;
7324;SDS011;3703;48.016;7.802;2023-04-24T01:14:57;1.23;;;1.20;;
7324;SDS011;3703;48.016;7.802;2023-04-24T01:17:46;1.10;;;1.10;;
7324;SDS011;3703;48.016;7.802;2023-04-24T01:20:33;0.77;;;0.77;;
7324;SDS011;3703;48.016;7.802;2023-04-24T01:23:26;1.30;;;1.10;;
7324;SDS011;3703;48.016;7.802;2023-04-24T01:26:15;1.50;;;1.07;;
7324;SDS011;3703;48.016;7.802;2023-04-24T01:29:05;1.60;;;1.10;;
7324;SDS011;3703;48.016;7.802;2023-04-24T01:31:53;1.73;;;1.40;;
7324;SDS011;3703;48.016;7.802;2023-04-24T01:34:43;1.10;;;1.00;;
7324;SDS011;3703;48.016;7.802;2023-04-24T01:37:31;1.47;;;1.00;;
7324;SDS011;3703;48.016;7.802;2023-04-24T01:40:21;1.50;;;1.40;;
7324;SDS011;3703;48.016;7.802;2023-04-24T01:43:08;1.67;;;0.80;;
7324;SDS011;3703;48.016;7.802;2023-04-24T01:45:56;0.97;;;0.90;;
7324;SDS011;3703;48.016;7.802;2023-04-24T01:48:44;1.47;;;0.83;;
7324;SDS011;3703;48.016;7.802;2023-04-24T01:51:32;1.20;;;1.10;;
7324;SDS011;3703;48.016;7.802;2023-04-24T01:54:20;1.13;;;0.80;;
7324;SDS011;3703;48.016;7.802;2023-04-24T01:57:08;1.20;;;0.90;;
7324;SDS011;3703;48.016;7.802;2023-04-24T01:59:56;1.20;;;1.10;;
7324;SDS011;3703;48.016;7.802;2023-04-24T02:02:44;3.03;;;1.17;;
7324;SDS011;3703;48.016;7.802;2023-04-24T02:05:32;1.03;;;0.97;;
7324;SDS011;3703;48.016;7.802;2023-04-24T02:08:19;0.87;;;0.87;;
7324;SDS011;3703;48.016;7.802;2023-04-24T02:11:08;2.57;;;1.27;;
7324;SDS011;3703;48.016;7.802;2023-04-24T02:13:57;1.30;;;1.20;;
7324;SDS011;3703;48.016;7.802;2023-04-24T02:16:45;2.40;;;1.20;;
7324;SDS011;3703;48.016;7.802;2023-04-24T02:19:32;2.93;;;1.60;;
7324;SDS011;3703;48.016;7.802;2023-04-24T02:22:20;3.97;;;0.97;;
7324;SDS011;3703;48.016;7.802;2023-04-24T02:25:07;1.30;;;1.20;;
7324;SDS011;3703;48.016;7.802;2023-04-24T02:27:55;2.10;;;1.10;;
7324;SDS011;3703;48.016;7.802;2023-04-24T02:30:44;2.60;;;1.43;;
7324;SDS011;3703;48.016;7.802;2023-04-24T02:33:32;1.27;;;1.10;;
7324;SDS011;3703;48.016;7.802;2023-04-24T02:36:19;1.60;;;1.33;;
7324;SDS011;3703;48.016;7.802;2023-04-24T02:39:06;1.00;;;1.00;;
7324;SDS011;3703;48.016;7.802;2023-04-24T02:41:54;2.27;;;1.30;;
7324;SDS011;3703;48.016;7.802;2023-04-24T02:44:41;1.20;;;1.10;;
7324;SDS011;3703;48.016;7.802;2023-04-24T02:47:30;2.10;;;1.33;;
7324;SDS011;3703;48.016;7.802;2023-04-24T02:50:18;3.33;;;1.53;;
7324;SDS011;3703;48.016;7.802;2023-04-24T02:53:05;1.30;;;1.20;;
7324;SDS011;3703;48.016;7.802;2023-04-24T02:55:53;1.43;;;1.20;;
7324;SDS011;3703;48.016;7.802;2023-04-24T02:58:40;5.60;;;3.10;;
7324;SDS011;3703;48.016;7.802;2023-04-24T03:01:28;2.47;;;1.43;;
7324;SDS011;3703;48.016;7.802;2023-04-24T03:04:17;2.13;;;1.17;;
7324;SDS011;3703;48.016;7.802;2023-04-24T03:07:05;1.50;;;1.40;;
7324;SDS011;3703;48.016;7.802;2023-04-24T03:09:53;1.53;;;1.10;;
7324;SDS011;3703;48.016;7.802;2023-04-24T03:12:41;1.40;;;1.30;;
7324;SDS011;3703;48.016;7.802;2023-04-24T03:15:28;3.70;;;1.63;;
7324;SDS011;3703;48.016;7.802;2023-04-24T03:18:16;1.63;;;1.53;;
7324;SDS011;3703;48.016;7.802;2023-04-24T03:21:05;1.57;;;1.13;;
7324;SDS011;3703;48.016;7.802;2023-04-24T03:23:53;1.33;;;1.20;;
7324;SDS011;3703;48.016;7.802;2023-04-24T03:26:40;1.90;;;1.30;;
7324;SDS011;3703;48.016;7.802;2023-04-24T03:29:28;3.70;;;1.37;;
7324;SDS011;3703;48.016;7.802;2023-04-24T03:32:15;1.63;;;1.00;;
7324;SDS011;3703;48.016;7.802;2023-04-24T03:35:03;3.37;;;0.90;;
7324;SDS011;3703;48.016;7.802;2023-04-24T03:37:53;1.40;;;1.07;;
7324;SDS011;3703;48.016;7.802;2023-04-24T03:40:40;2.67;;;0.80;;
7324;SDS011;3703;48.016;7.802;2023-04-24T03:43:28;1.33;;;1.10;;
7324;SDS011;3703;48.016;7.802;2023-04-24T03:46:15;1.50;;;1.30;;
7324;SDS011;3703;48.016;7.802;2023-04-24T03:49:03;1.37;;;1.20;;
7324;SDS011;3703;48.016;7.802;2023-04-24T03:51:50;2.43;;;1.57;;
7324;SDS011;3703;48.016;7.802;2023-04-24T03:54:40;1.77;;;1.50;;
7324;SDS011;3703;48.016;7.802;2023-04-24T03:57:27;0.87;;;0.80;;
7324;SDS011;3703;48.016;7.802;2023-04-24T04:00:15;2.40;;;1.30;;
7324;SDS011;3703;48.016;7.802;2023-04-24T04:03:04;1.33;;;1.17;;
7324;SDS011;3703;48.016;7.802;2023-04-24T04:05:51;1.43;;;1.17;;
7324;SDS011;3703;48.016;7.802;2023-04-24T04:08:39;1.73;;;1.20;;
7324;SDS011;3703;48.016;7.802;2023-04-24T04:11:28;2.67;;;1.67;;
7324;SDS011;3703;48.016;7.802;2023-04-24T04:14:16;2.97;;;1.67;;
7324;SDS011;3703;48.016;7.802;2023-04-24T04:17:03;2.13;;;1.40;;
7324;SDS011;3703;48.016;7.802;2023-04-24T04:19:51;3.07;;;1.47;;
7324;SDS011;3703;48.016;7.802;2023-04-24T04:22:39;1.73;;;1.63;;
7324;SDS011;3703;48.016;7.802;2023-04-24T04:25:27;2.63;;;1.40;;
7324;SDS011;3703;48.016;7.802;2023-04-24T04:28:16;2.13;;;1.77;;
7324;SDS011;3703;48.016;7.802;2023-04-24T04:31:05;2.50;;;1.40;;
7324;SDS011;3703;48.016;7.802;2023-04-24T04:33:53;2.60;;;1.77;;
7324;SDS011;3703;48.016;7.802;2023-04-24T04:36:41;3.53;;;1.70;;
7324;SDS011;3703;48.016;7.802;2023-04-24T04:39:29;4.23;;;1.60;;
7324;SDS011;3703;48.016;7.802;2023-04-24T04:42:17;3.03;;;1.80;;
7324;SDS011;3703;48.016;7.802;2023-04-24T04:45:07;1.90;;;1.70;;
7324;SDS011;3703;48.016;7.802;2023-04-24T04:47:56;2.37;;;1.73;;
7324;SDS011;3703;48.016;7.802;2023-04-24T04:50:46;1.40;;;1.27;;
7324;SDS011;3703;48.016;7.802;2023-04-24T04:53:33;2.50;;;1.93;;
7324;SDS011;3703;48.016;7.802;2023-04-24T04:56:21;3.00;;;2.23;;
7324;SDS011;3703;48.016;7.802;2023-04-24T04:59:08;1.90;;;1.53;;
7324;SDS011;3703;48.016;7.802;2023-04-24T05:01:57;2.60;;;1.93;;
7324;SDS011;3703;48.016;7.802;2023-04-24T05:04:45;2.67;;;1.87;;
7324;SDS011;3703;48.016;7.802;2023-04-24T05:07:33;3.03;;;1.60;;
7324;SDS011;3703;48.016;7.802;2023-04-24T05:10:20;2.13;;;1.63;;
7324;SDS011;3703;48.016;7.802;2023-04-24T05:13:08;4.30;;;2.23;;
7324;SDS011;3703;48.016;7.802;2023-04-24T05:15:56;2.93;;;2.20;;
7324;SDS011;3703;48.016;7.802;2023-04-24T05:18:46;1.63;;;1.40;;
7324;SDS011;3703;48.016;7.802;2023-04-24T05:21:33;1.80;;;1.70;;
7324;SDS011;3703;48.016;7.802;2023-04-24T05:24:21;2.13;;;1.90;;
7324;SDS011;3703;48.016;7.802;2023-04-24T05:27:08;9.87;;;7.47;;
7324;SDS011;3703;48.016;7.802;2023-04-24T05:29:55;3.43;;;2.53;;
7324;SDS011;3703;48.016;7.802;2023-04-24T05:32:43;3.63;;;2.10;;
7324;SDS011;3703;48.016;7.802;2023-04-24T05:35:32;2.87;;;1.87;;
7324;SDS011;3703;48.016;7.802;2023-04-24T05:38:19;2.73;;;2.07;;
7324;SDS011;3703;48.016;7.802;2023-04-24T05:41:07;2.87;;;2.27;;
7324;SDS011;3703;48.016;7.802;2023-04-24T05:43:55;2.60;;;2.00;;
7324;SDS011;3703;48.016;7.802;2023-04-24T05:46:42;2.00;;;1.80;;
7324;SDS011;3703;48.016;7.802;2023-04-24T05:49:30;6.20;;;2.60;;
7324;SDS011;3703;48.016;7.802;2023-04-24T05:52:19;3.63;;;2.40;;
7324;SDS011;3703;48.016;7.802;2023-04-24T05:55:06;2.73;;;2.10;;
7324;SDS011;3703;48.016;7.802;2023-04-24T05:57:54;3.30;;;2.60;;
7324;SDS011;3703;48.016;7.802;2023-04-24T06:00:42;5.77;;;3.03;;
7324;SDS011;3703;48.016;7.802;2023-04-24T06:03:32;2.47;;;2.27;;
7324;SDS011;3703;48.016;7.802;2023-04-24T06:06:19;3.47;;;2.80;;
7324;SDS011;3703;48.016;7.802;2023-04-24T06:09:08;3.63;;;2.37;;
7324;SDS011;3703;48.016;7.802;2023-04-24T06:11:56;2.93;;;2.40;;
7324;SDS011;3703;48.016;7.802;2023-04-24T06:14:44;2.67;;;2.40;;
7324;SDS011;3703;48.016;7.802;2023-04-24T06:17:31;5.90;;;3.17;;
7324;SDS011;3703;48.016;7.802;2023-04-24T06:20:19;3.07;;;2.63;;
7324;SDS011;3703;48.016;7.802;2023-04-24T06:23:06;3.60;;;2.43;;
7324;SDS011;3703;48.016;7.802;2023-04-24T06:25:55;4.87;;;3.13;;
7324;SDS011;3703;48.016;7.802;2023-04-24T06:28:43;7.00;;;3.60;;
7324;SDS011;3703;48.016;7.802;2023-04-24T06:31:30;6.17;;;2.93;;
7324;SDS011;3703;48.016;7.802;2023-04-24T06:34:22;4.77;;;3.20;;
7324;SDS011;3703;48.016;7.802;2023-04-24T06:37:09;3.57;;;2.73;;
7324;SDS011;3703;48.016;7.802;2023-04-24T06:39:57;3.33;;;2.70;;
7324;SDS011;3703;48.016;7.802;2023-04-24T06:42:46;3.57;;;2.50;;
7324;SDS011;3703;48.016;7.802;2023-04-24T06:45:33;3.30;;;3.00;;
7324;SDS011;3703;48.016;7.802;2023-04-24T06:48:21;3.40;;;2.80;;
7324;SDS011;3703;48.016;7.802;2023-04-24T06:51:08;3.43;;;2.23;;
7324;SDS011;3703;48.016;7.802;2023-04-24T06:53:56;4.40;;;3.10;;
7324;SDS011;3703;48.016;7.802;2023-04-24T06:56:43;3.40;;;2.57;;
7324;SDS011;3703;48.016;7.802;2023-04-24T06:59:34;4.23;;;2.80;;
7324;SDS011;3703;48.016;7.802;2023-04-24T07:02:22;3.83;;;2.60;;
7324;SDS011;3703;48.016;7.802;2023-04-24T07:05:10;3.97;;;2.87;;
7324;SDS011;3703;48.016;7.802;2023-04-24T07:07:58;3.77;;;3.00;;
7324;SDS011;3703;48.016;7.802;2023-04-24T07:10:45;3.10;;;2.80;;
7324;SDS011;3703;48.016;7.802;2023-04-24T07:13:33;7.83;;;5.67;;
7324;SDS011;3703;48.016;7.802;2023-04-24T07:16:22;3.80;;;3.43;;
7324;SDS011;3703;48.016;7.802;2023-04-24T07:19:09;5.70;;;3.40;;
7324;SDS011;3703;48.016;7.802;2023-04-24T07:21:57;3.77;;;2.80;;
7324;SDS011;3703;48.016;7.802;2023-04-24T07:24:45;5.70;;;3.23;;
7324;SDS011;3703;48.016;7.802;2023-04-24T07:27:33;3.47;;;3.17;;
7324;SDS011;3703;48.016;7.802;2023-04-24T07:30:21;3.43;;;2.83;;
7324;SDS011;3703;48.016;7.802;2023-04-24T07:33:10;3.60;;;2.73;;
7324;SDS011;3703;48.016;7.802;2023-04-24T07:35:58;2.93;;;2.57;;
7324;SDS011;3703;48.016;7.802;2023-04-24T07:38:46;5.60;;;2.37;;
7324;SDS011;3703;48.016;7.802;2023-04-24T07:41:33;4.93;;;3.20;;
7324;SDS011;3703;48.016;7.802;2023-04-24T07:44:21;3.60;;;2.27;;
7324;SDS011;3703;48.016;7.802;2023-04-24T07:47:08;4.30;;;2.37;;
7324;SDS011;3703;48.016;7.802;2023-04-24T07:49:57;2.80;;;2.07;;
7324;SDS011;3703;48.016;7.802;2023-04-24T07:52:45;2.43;;;1.67;;
7324;SDS011;3703;48.016;7.802;2023-04-24T07:55:33;3.27;;;2.20;;
7324;SDS011;3703;48.016;7.802;2023-04-24T07:58:20;3.70;;;2.57;;
7324;SDS011;3703;48.016;7.802;2023-04-24T08:01:08;4.10;;;2.57;;
7324;SDS011;3703;48.016;7.802;2023-04-24T08:03:55;4.87;;;2.93;;
7324;SDS011;3703;48.016;7.802;2023-04-24T08:06:44;3.60;;;2.27;;
7324;SDS011;3703;48.016;7.802;2023-04-24T08:09:33;3.10;;;2.80;;
7324;SDS011;3703;48.016;7.802;2023-04-24T08:12:21;4.03;;;2.13;;
7324;SDS011;3703;48.016;7.802;2023-04-24T08:15:09;3.67;;;2.73;;
7324;SDS011;3703;48.016;7.802;2023-04-24T08:17:57;2.83;;;2.53;;
7324;SDS011;3703;48.016;7.802;2023-04-24T08:20:44;3.33;;;2.93;;
7324;SDS011;3703;48.016;7.802;2023-04-24T08:23:33;8.27;;;3.60;;
7324;SDS011;3703;48.016;7.802;2023-04-24T08:26:21;6.73;;;2.87;;
7324;SDS011;3703;48.016;7.802;2023-04-24T08:29:08;4.13;;;2.37;;
7324;SDS011;3703;48.016;7.802;2023-04-24T08:31:56;2.70;;;2.50;;
7324;SDS011;3703;48.016;7.802;2023-04-24T08:34:43;4.07;;;2.63;;
7324;SDS011;3703;48.016;7.802;2023-04-24T08:37:31;3.57;;;1.80;;
7324;SDS011;3703;48.016;7.802;2023-04-24T08:40:22;2.70;;;2.20;;
7324;SDS011;3703;48.016;7.802;2023-04-24T08:43:15;2.67;;;2.43;;
7324;SDS011;3703;48.016;7.802;2023-04-24T08:46:03;4.83;;;2.60;;
7324;SDS011;3703;48.016;7.802;2023-04-24T08:48:51;2.63;;;2.43;;
7324;SDS011;3703;48.016;7.802;2023-04-24T08:51:39;2.77;;;2.00;;
7324;SDS011;3703;48.016;7.802;2023-04-24T08:54:27;2.97;;;1.90;;
7324;SDS011;3703;48.016;7.802;2023-04-24T08:57:17;2.47;;;2.20;;
7324;SDS011;3703;48.016;7.802;2023-04-24T09:00:05;3.97;;;2.20;;
7324;SDS011;3703;48.016;7.802;2023-04-24T09:02:54;2.10;;;1.97;;
7324;SDS011;3703;48.016;7.802;2023-04-24T09:05:42;2.40;;;2.20;;
7324;SDS011;3703;48.016;7.802;2023-04-24T09:08:33;2.00;;;1.80;;
7324;SDS011;3703;48.016;7.802;2023-04-24T09:11:20;1.70;;;1.60;;
7324;SDS011;3703;48.016;7.802;2023-04-24T09:14:11;2.37;;;1.87;;
7324;SDS011;3703;48.016;7.802;2023-04-24T09:16:59;3.67;;;2.00;;
7324;SDS011;3703;48.016;7.802;2023-04-24T09:19:47;2.23;;;2.03;;
7324;SDS011;3703;48.016;7.802;2023-04-24T09:22:34;5.40;;;1.97;;
7324;SDS011;3703;48.016;7.802;2023-04-24T09:25:23;2.63;;;2.43;;
7324;SDS011;3703;48.016;7.802;2023-04-24T09:28:18;5.50;;;2.40;;
7324;SDS011;3703;48.016;7.802;2023-04-24T09:31:13;2.23;;;1.97;;
7324;SDS011;3703;48.016;7.802;2023-04-24T09:34:04;3.37;;;2.20;;
7324;SDS011;3703;48.016;7.802;2023-04-24T09:36:53;3.67;;;1.97;;
7324;SDS011;3703;48.016;7.802;2023-04-24T09:39:41;1.93;;;1.83;;
7324;SDS011;3703;48.016;7.802;2023-04-24T09:42:29;1.93;;;1.83;;
7324;SDS011;3703;48.016;7.802;2023-04-24T09:45:17;1.80;;;1.70;;
7324;SDS011;3703;48.016;7.802;2023-04-24T09:48:07;2.77;;;2.10;;
7324;SDS011;3703;48.016;7.802;2023-04-24T09:50:56;4.57;;;1.63;;
7324;SDS011;3703;48.016;7.802;2023-04-24T09:53:45;2.27;;;1.67;;
7324;SDS011;3703;48.016;7.802;2023-04-24T09:56:33;2.17;;;1.70;;
7324;SDS011;3703;48.016;7.802;2023-04-24T09:59:21;3.53;;;1.70;;
7324;SDS011;3703;48.016;7.802;2023-04-24T10:02:16;2.00;;;1.50;;
7324;SDS011;3703;48.016;7.802;2023-04-24T10:05:06;1.30;;;1.20;;
7324;SDS011;3703;48.016;7.802;2023-04-24T10:07:59;2.00;;;1.50;;
7324;SDS011;3703;48.016;7.802;2023-04-24T10:10:49;1.70;;;1.60;;
7324;SDS011;3703;48.016;7.802;2023-04-24T10:13:37;1.30;;;1.30;;
7324;SDS011;3703;48.016;7.802;2023-04-24T10:16:26;1.57;;;1.47;;
7324;SDS011;3703;48.016;7.802;2023-04-24T10:19:14;1.33;;;1.00;;
7324;SDS011;3703;48.016;7.802;2023-04-24T10:22:05;1.13;;;0.93;;
7324;SDS011;3703;48.016;7.802;2023-04-24T10:24:53;1.40;;;1.30;;
7324;SDS011;3703;48.016;7.802;2023-04-24T10:27:40;1.70;;;1.60;;
7324;SDS011;3703;48.016;7.802;2023-04-24T10:30:29;1.10;;;1.00;;
7324;SDS011;3703;48.016;7.802;2023-04-24T10:33:20;2.60;;;1.73;;
7324;SDS011;3703;48.016;7.802;2023-04-24T10:36:09;1.90;;;1.80;;
7324;SDS011;3703;48.016;7.802;2023-04-24T10:38:51;1.60;;;1.50;;
7324;SDS011;3703;48.016;7.802;2023-04-24T10:41:41;2.23;;;1.50;;
7324;SDS011;3703;48.016;7.802;2023-04-24T10:44:35;1.37;;;1.27;;
7324;SDS011;3703;48.016;7.802;2023-04-24T10:47:23;1.30;;;1.20;;
7324;SDS011;3703;48.016;7.802;2023-04-24T10:50:11;2.33;;;1.57;;
7324;SDS011;3703;48.016;7.802;2023-04-24T10:53:05;3.97;;;2.07;;
7324;SDS011;3703;48.016;7.802;2023-04-24T10:55:59;3.40;;;2.23;;
7324;SDS011;3703;48.016;7.802;2023-04-24T10:58:50;3.63;;;1.90;;
7324;SDS011;3703;48.016;7.802;2023-04-24T11:01:39;2.83;;;2.43;;
7324;SDS011;3703;48.016;7.802;2023-04-24T11:04:39;2.20;;;2.00;;
7324;SDS011;3703;48.016;7.802;2023-04-24T11:07:28;2.47;;;1.57;;
7324;SDS011;3703;48.016;7.802;2023-04-24T11:10:24;3.13;;;1.53;;
7324;SDS011;3703;48.016;7.802;2023-04-24T11:13:15;3.03;;;2.00;;
7324;SDS011;3703;48.016;7.802;2023-04-24T11:16:13;2.83;;;1.70;;
7324;SDS011;3703;48.016;7.802;2023-04-24T11:19:02;3.00;;;1.90;;
7324;SDS011;3703;48.016;7.802;2023-04-24T11:21:56;3.30;;;1.90;;
7324;SDS011;3703;48.016;7.802;2023-04-24T11:24:49;2.30;;;2.10;;
7324;SDS011;3703;48.016;7.802;2023-04-24T11:27:38;1.77;;;1.67;;
7324;SDS011;3703;48.016;7.802;2023-04-24T11:30:29;3.03;;;1.90;;
7324;SDS011;3703;48.016;7.802;2023-04-24T11:33:19;2.53;;;1.47;;
7324;SDS011;3703;48.016;7.802;2023-04-24T11:36:07;3.27;;;1.80;;
7324;SDS011;3703;48.016;7.802;2023-04-24T11:38:55;3.10;;;2.10;;
7324;SDS011;3703;48.016;7.802;2023-04-24T11:41:43;2.07;;;1.90;;
7324;SDS011;3703;48.016;7.802;2023-04-24T11:44:30;2.37;;;1.87;;
7324;SDS011;3703;48.016;7.802;2023-04-24T11:47:21;1.83;;;1.70;;
7324;SDS011;3703;48.016;7.802;2023-04-24T11:50:16;7.70;;;2.40;;
7324;SDS011;3703;48.016;7.802;2023-04-24T11:53:04;2.77;;;2.07;;
7324;SDS011;3703;48.016;7.802;2023-04-24T11:55:52;3.43;;;2.13;;
7324;SDS011;3703;48.016;7.802;2023-04-24T11:58:39;5.93;;;3.30;;
7324;SDS011;3703;48.016;7.802;2023-04-24T12:01:27;3.00;;;1.90;;
7324;SDS011;3703;48.016;7.802;2023-04-24T12:04:17;2.40;;;1.87;;
7324;SDS011;3703;48.016;7.802;2023-04-24T12:07:05;4.47;;;3.20;;
7324;SDS011;3703;48.016;7.802;2023-04-24T12:09:57;3.93;;;3.10;;
7324;SDS011;3703;48.016;7.802;2023-04-24T12:12:46;3.97;;;2.77;;
7324;SDS011;3703;48.016;7.802;2023-04-24T12:15:35;1.70;;;1.60;;
7324;SDS011;3703;48.016;7.802;2023-04-24T12:18:27;1.80;;;1.70;;
7324;SDS011;3703;48.016;7.802;2023-04-24T12:21:16;2.33;;;2.00;;
7324;SDS011;3703;48.016;7.802;2023-04-24T12:24:05;3.90;;;3.30;;
7324;SDS011;3703;48.016;7.802;2023-04-24T12:26:54;3.20;;;2.13;;
7324;SDS011;3703;48.016;7.802;2023-04-24T12:29:50;4.10;;;3.03;;
7324;SDS011;3703;48.016;7.802;2023-04-24T12:32:43;4.63;;;2.40;;
7324;SDS011;3703;48.016;7.802;2023-04-24T12:35:33;3.20;;;2.20;;
7324;SDS011;3703;48.016;7.802;2023-04-24T12:38:23;7.13;;;3.73;;
7324;SDS011;3703;48.016;7.802;2023-04-24T12:41:13;1.60;;;1.50;;
7324;SDS011;3703;48.016;7.802;2023-04-24T12:44:01;1.90;;;1.70;;
7324;SDS011;3703;48.016;7.802;2023-04-24T12:46:48;4.13;;;2.67;;
7324;SDS011;3703;48.016;7.802;2023-04-24T12:49:36;2.63;;;2.23;;
7324;SDS011;3703;48.016;7.802;2023-04-24T12:52:24;3.90;;;3.13;;
7324;SDS011;3703;48.016;7.802;2023-04-24T12:55:14;2.40;;;1.87;;
7324;SDS011;3703;48.016;7.802;2023-04-24T12:58:01;2.03;;;1.70;;
7324;SDS011;3703;48.016;7.802;2023-04-24T13:00:49;1.90;;;1.73;;
7324;SDS011;3703;48.016;7.802;2023-04-24T13:03:36;1.67;;;1.50;;
7324;SDS011;3703;48.016;7.802;2023-04-24T13:06:24;2.27;;;1.87;;
7324;SDS011;3703;48.016;7.802;2023-04-24T13:09:11;2.27;;;2.07;;
7324;SDS011;3703;48.016;7.802;2023-04-24T13:12:00;2.17;;;1.97;;
7324;SDS011;3703;48.016;7.802;2023-04-24T13:14:51;2.50;;;2.17;;
7324;SDS011;3703;48.016;7.802;2023-04-24T13:17:38;3.67;;;2.40;;
7324;SDS011;3703;48.016;7.802;2023-04-24T13:20:26;4.20;;;1.87;;
7324;SDS011;3703;48.016;7.802;2023-04-24T13:23:14;2.80;;;2.20;;
7324;SDS011;3703;48.016;7.802;2023-04-24T13:26:01;2.93;;;2.10;;
7324;SDS011;3703;48.016;7.802;2023-04-24T13:28:50;5.30;;;2.83;;
7324;SDS011;3703;48.016;7.802;2023-04-24T13:31:37;2.63;;;2.27;;
7324;SDS011;3703;48.016;7.802;2023-04-24T13:34:25;2.33;;;1.87;;
7324;SDS011;3703;48.016;7.802;2023-04-24T13:37:13;4.80;;;2.00;;
7324;SDS011;3703;48.016;7.802;2023-04-24T13:40:00;1.60;;;1.50;;
7324;SDS011;3703;48.016;7.802;2023-04-24T13:42:49;1.87;;;1.70;;
7324;SDS011;3703;48.016;7.802;2023-04-24T13:45:38;2.57;;;1.57;;
7324;SDS011;3703;48.016;7.802;2023-04-24T13:48:26;4.93;;;2.10;;
7324;SDS011;3703;48.016;7.802;2023-04-24T13:51:13;2.90;;;2.03;;
7324;SDS011;3703;48.016;7.802;2023-04-24T13:54:01;3.27;;;2.07;;
7324;SDS011;3703;48.016;7.802;2023-04-24T13:56:49;3.33;;;1.90;;
7324;SDS011;3703;48.016;7.802;2023-04-24T13:59:37;3.23;;;2.33;;
7324;SDS011;3703;48.016;7.802;2023-04-24T14:02:26;3.00;;;2.20;;
7324;SDS011;3703;48.016;7.802;2023-04-24T14:05:14;2.77;;;2.37;;
7324;SDS011;3703;48.016;7.802;2023-04-24T14:08:01;2.93;;;2.27;;
7324;SDS011;3703;48.016;7.802;2023-04-24T14:10:49;2.67;;;1.93;;
7324;SDS011;3703;48.016;7.802;2023-04-24T14:13:37;2.93;;;2.00;;
7324;SDS011;3703;48.016;7.802;2023-04-24T14:16:25;3.27;;;1.97;;
7324;SDS011;3703;48.016;7.802;2023-04-24T14:19:14;2.47;;;2.00;;
7324;SDS011;3703;48.016;7.802;2023-04-24T14:22:01;2.37;;;2.17;;
7324;SDS011;3703;48.016;7.802;2023-04-24T14:24:49;2.67;;;1.83;;
7324;SDS011;3703;48.016;7.802;2023-04-24T14:27:37;5.60;;;2.03;;
7324;SDS011;3703;48.016;7.802;2023-04-24T14:30:25;3.70;;;2.30;;
7324;SDS011;3703;48.016;7.802;2023-04-24T14:33:13;2.37;;;2.13;;
7324;SDS011;3703;48.016;7.802;2023-04-24T14:36:02;2.33;;;2.03;;
7324;SDS011;3703;48.016;7.802;2023-04-24T14:38:51;5.80;;;1.93;;
7324;SDS011;3703;48.016;7.802;2023-04-24T14:41:38;1.93;;;1.73;;
7324;SDS011;3703;48.016;7.802;2023-04-24T14:44:26;2.60;;;1.80;;
7324;SDS011;3703;48.016;7.802;2023-04-24T14:47:13;2.13;;;1.90;;
7324;SDS011;3703;48.016;7.802;2023-04-24T14:50:03;2.10;;;2.00;;
7324;SDS011;3703;48.016;7.802;2023-04-24T14:52:53;2.10;;;1.90;;
7324;SDS011;3703;48.016;7.802;2023-04-24T14:55:42;5.00;;;1.73;;
7324;SDS011;3703;48.016;7.802;2023-04-24T14:58:30;4.57;;;1.90;;
7324;SDS011;3703;48.016;7.802;2023-04-24T15:01:18;3.77;;;1.93;;
7324;SDS011;3703;48.016;7.802;2023-04-24T15:04:05;3.87;;;2.10;;
7324;SDS011;3703;48.016;7.802;2023-04-24T15:06:53;2.30;;;2.13;;
7324;SDS011;3703;48.016;7.802;2023-04-24T15:09:44;2.23;;;2.03;;
7324;SDS011;3703;48.016;7.802;2023-04-24T15:12:32;3.47;;;2.50;;
7324;SDS011;3703;48.016;7.802;2023-04-24T15:15:20;2.20;;;2.00;;
7324;SDS011;3703;48.016;7.802;2023-04-24T15:18:08;2.40;;;2.00;;
7324;SDS011;3703;48.016;7.802;2023-04-24T15:20:57;3.33;;;2.30;;
7324;SDS011;3703;48.016;7.802;2023-04-24T15:23:44;2.97;;;2.23;;
7324;SDS011;3703;48.016;7.802;2023-04-24T15:26:33;2.07;;;1.77;;
7324;SDS011;3703;48.016;7.802;2023-04-24T15:29:21;3.77;;;2.53;;
7324;SDS011;3703;48.016;7.802;2023-04-24T15:32:08;2.50;;;2.33;;
7324;SDS011;3703;48.016;7.802;2023-04-24T15:34:56;2.37;;;1.90;;
7324;SDS011;3703;48.016;7.802;2023-04-24T15:37:44;2.37;;;2.17;;
7324;SDS011;3703;48.016;7.802;2023-04-24T15:40:32;2.80;;;1.93;;
7324;SDS011;3703;48.016;7.802;2023-04-24T15:43:21;2.27;;;1.90;;
7324;SDS011;3703;48.016;7.802;2023-04-24T15:46:09;2.70;;;2.00;;
7324;SDS011;3703;48.016;7.802;2023-04-24T15:48:57;3.70;;;2.13;;
7324;SDS011;3703;48.016;7.802;2023-04-24T15:51:45;4.80;;;2.43;;
7324;SDS011;3703;48.016;7.802;2023-04-24T15:54:32;2.03;;;1.93;;
7324;SDS011;3703;48.016;7.802;2023-04-24T15:57:20;2.10;;;1.70;;
7324;SDS011;3703;48.016;7.802;2023-04-24T16:00:10;2.63;;;2.17;;
7324;SDS011;3703;48.016;7.802;2023-04-24T16:02:58;3.23;;;2.93;;
7324;SDS011;3703;48.016;7.802;2023-04-24T16:05:46;3.50;;;2.40;;
7324;SDS011;3703;48.016;7.802;2023-04-24T16:08:34;3.67;;;2.43;;
7324;SDS011;3703;48.016;7.802;2023-04-24T16:11:21;2.43;;;2.23;;
7324;SDS011;3703;48.016;7.802;2023-04-24T16:14:09;4.10;;;2.80;;
7324;SDS011;3703;48.016;7.802;2023-04-24T16:16:58;4.80;;;3.50;;
7324;SDS011;3703;48.016;7.802;2023-04-24T16:19:46;3.60;;;2.60;;
7324;SDS011;3703;48.016;7.802;2023-04-24T16:22:34;2.83;;;2.63;;
7324;SDS011;3703;48.016;7.802;2023-04-24T16:25:21;3.30;;;3.00;;
7324;SDS011;3703;48.016;7.802;2023-04-24T16:28:09;4.13;;;2.70;;
7324;SDS011;3703;48.016;7.802;2023-04-24T16:30:57;4.97;;;3.40;;
7324;SDS011;3703;48.016;7.802;2023-04-24T16:33:46;4.67;;;4.03;;
7324;SDS011;3703;48.016;7.802;2023-04-24T16:36:33;2.53;;;2.03;;
7324;SDS011;3703;48.016;7.802;2023-04-24T16:39:21;5.83;;;3.50;;
7324;SDS011;3703;48.016;7.802;2023-04-24T16:42:10;3.83;;;2.30;;
7324;SDS011;3703;48.016;7.802;2023-04-24T16:44:58;4.77;;;2.67;;
7324;SDS011;3703;48.016;7.802;2023-04-24T16:47:46;5.60;;;3.63;;
7324;SDS011;3703;48.016;7.802;2023-04-24T16:50:35;4.23;;;3.27;;
7324;SDS011;3703;48.016;7.802;2023-04-24T16:53:23;3.00;;;2.80;;
7324;SDS011;3703;48.016;7.802;2023-04-24T16:56:10;6.03;;;3.00;;
7324;SDS011;3703;48.016;7.802;2023-04-24T16:58:58;3.50;;;3.20;;
7324;SDS011;3703;48.016;7.802;2023-04-24T17:01:46;3.93;;;3.53;;
7324;SDS011;3703;48.016;7.802;2023-04-24T17:04:34;5.03;;;3.50;;
7324;SDS011;3703;48.016;7.802;2023-04-24T17:07:22;3.57;;;3.07;;
7324;SDS011;3703;48.016;7.802;2023-04-24T17:10:10;4.50;;;3.17;;
7324;SDS011;3703;48.016;7.802;2023-04-24T17:12:57;3.30;;;3.00;;
7324;SDS011;3703;48.016;7.802;2023-04-24T17:15:45;4.57;;;3.23;;
7324;SDS011;3703;48.016;7.802;2023-04-24T17:18:32;4.30;;;2.60;;
7324;SDS011;3703;48.016;7.802;2023-04-24T17:21:20;3.27;;;2.90;;
7324;SDS011;3703;48.016;7.802;2023-04-24T17:24:09;7.13;;;3.13;;
7324;SDS011;3703;48.016;7.802;2023-04-24T17:26:57;6.03;;;3.50;;